• Join FlightAware (Why Join?)
  • Login
  • US Flag 
06:15AM EDT


 

Airport Tracker/Info


-or-


 

Live Flight TrackerFlight Track Log ✈ UAL481 ✈ 07-Aug-2013 ✈ KALB - KORD

Flight Track Log - Related Links

Times and Time Zones

All times are in EDT time to prevent confusion due to time zone crossing. See the UAL481 flight status page for this flight to view local times or setup timezone preferences in your user account.

Time Position Orientation Groundspeed Altitude Reporting Facility
EDT Latitude Longitude Course Direction KTS MPH feet Rate Location/Type
07:17PM 42.7297 -73.8081 200° South 148 170 1,400  Level Boston Center
07:18PM 42.6711 -73.8378 200° South 220 253 4,700 2,340 Climbing Boston Center
07:19PM 42.7081 -73.8839 317° Northwest 274 315 6,400 2,580 Climbing Boston Center
07:20PM 42.7806 -73.9194 340° North 300 345 9,300 2,880 Climbing Boston Center
07:21PM 42.8572 -73.9583 340° North 305 351 12,200 1,920 Climbing Boston Center
07:22PM 42.9358 -73.9942 342° North 313 360 13,200 1,680 Climbing Boston Center
07:23PM 43.0414 -74.0481 340° North 359 413 15,600 2,280 Climbing Boston Center
07:24PM 43.1344 -74.0931 341° North 382 440 17,800 1,980 Climbing Boston Center
07:25PM 43.2461 -74.1503 340° North 388 447 19,600 1,860 Climbing Boston Center
07:26PM 43.3192 -74.2836 307° West 354 407 21,900 1,500 Climbing Boston Center
07:27PM 43.3311 -74.4381 276° West 365 420 23,000 1,320 Climbing Boston Center
07:28PM 43.3431 -74.5869 276° West 377 434 24,600 1,560 Climbing Boston Center
07:29PM 43.3486 -74.7358 273° West 393 452 26,200 1,260 Climbing Boston Center
07:30PM 43.3453 -74.8925 268° West 398 458 27,200 1,320 Climbing Boston Center
07:31PM 43.3419 -75.0439 268° West 403 464 28,900 1,380 Climbing Boston Center
07:32PM 43.3383 -75.2008 268° West 403 464 30,000 540 Climbing Boston Center
07:33PM 43.3344 -75.3547 268° West 403 464 30,000  Level Boston Center
07:34PM 43.3308 -75.4917 268° West 396 456 30,000 -60 Level Boston Center
07:35PM 43.3289 -75.6400 269° West 396 456 29,900 -60 Descending Boston Center
07:36PM 43.3225 -75.7908 267° West 402 463 29,900  Level Boston Center
07:37PM 43.3200 -75.9450 269° West 402 463 29,900  Level Boston Center
07:38PM 43.3153 -76.0958 268° West 402 463 30,000  Climbing Boston Center
07:39PM 43.3100 -76.2497 267° West 402 463 30,000  Level Boston Center
07:40PM 43.3017 -76.4608 267° West 399 459 30,000 -60 Level Cleveland Center
07:41PM 43.2986 -76.6094 268° West 399 459 29,900 -60 Descending Cleveland Center
07:42PM 43.2914 -76.7639 266° West 405 466 29,900  Level Cleveland Center
07:43PM 43.2878 -76.9153 268° West 405 466 30,000 480 Climbing Cleveland Center
07:46PM 43.2632 -77.1785 267° West  Level FlightAware Approximate
07:46PM 43.2644 -77.3900 267° West 405 466 32,000  Level Cleveland Center
07:47PM 43.2581 -77.5444 267° West 405 466 32,000  Level Cleveland Center
07:48PM 43.2517 -77.6986 267° West 405 466 32,000  Level Cleveland Center
07:49PM 43.2450 -77.8500 267° West 405 466 32,000  Level Cleveland Center
07:50PM 43.2381 -78.0014 266° West 405 466 32,000  Level Cleveland Center
07:51PM 43.2289 -78.1528 265° West 405 466 32,000  Level Cleveland Center
07:52PM 43.2214 -78.3069 266° West 405 466 32,000  Level Cleveland Center
07:53PM 43.2139 -78.4553 266° West 405 466 32,000  Level Cleveland Center
07:54PM 43.2061 -78.6067 266° West 405 466 32,000  Level Cleveland Center
07:55PM 43.1981 -78.7550 266° West 405 466 32,000  Level Cleveland Center
07:56PM 43.1878 -78.9033 265° West 405 466 32,000  Level Cleveland Center
07:58PM 43.2000 -79.0667 276° West 390 449 32,000  Level Toronto Center
07:59PM 43.2333 -79.2167 287° West 390 449 32,000  Level Toronto Center
08:00PM 43.2500 -79.3667 279° West 390 449 32,000  Level Toronto Center
08:01PM 43.2833 -79.5000 289° West 390 449 32,000  Level Toronto Center
08:02PM 43.3167 -79.6333 289° West 380 437 32,000  Level Toronto Center
08:03PM 43.3333 -79.7667 280° West 390 449 32,000  Level Toronto Center
08:04PM 43.3667 -79.9000 289° West 380 437 32,000  Level Toronto Center
08:05PM 43.4000 -80.0667 285° West 380 437 32,000  Level Toronto Center
08:06PM 43.4333 -80.2000 289° West 380 437 32,000  Level Toronto Center
08:07PM 43.4667 -80.3500 287° West 380 437 32,000  Level Toronto Center
08:08PM 43.4833 -80.4833 280° West 380 437 32,000  Level Toronto Center
08:09PM 43.5167 -80.6167 289° West 370 426 32,000  Level Toronto Center
08:10PM 43.5500 -80.7667 287° West 370 426 32,000  Level Toronto Center
08:11PM 43.5667 -80.8833 281° West 370 426 32,000  Level Toronto Center
08:12PM 43.6000 -81.0167 289° West 380 437 32,000  Level Toronto Center
08:13PM 43.6333 -81.1500 289° West 380 437 32,000  Level Toronto Center
08:14PM 43.6667 -81.3000 287° West 370 426 32,000  Level Toronto Center
08:15PM 43.6500 -81.4333 260° West 380 437 32,000  Level Toronto Center
08:16PM 43.6000 -81.5833 245° Southwest 390 449 32,000 600 Level Toronto Center
08:17PM 43.5667 -81.7333 253° West 390 449 33,200 960 Climbing Toronto Center
08:18PM 43.5333 -81.8667 251° West 390 449 34,000 360 Climbing Toronto Center
08:19PM 43.4833 -81.9833 239° Southwest 380 437 34,000  Level Toronto Center
08:20PM 43.4333 -82.1333 245° Southwest 380 437 34,000  Level Toronto Center
08:20PM 43.4303 -82.2183 267° West 384 442 34,000  Level Cleveland Center
08:21PM 43.4011 -82.3547 254° West 384 442 34,000  Level Cleveland Center
08:22PM 43.3697 -82.4881 252° West 384 442 34,000 -60 Level Cleveland Center
08:23PM 43.3381 -82.6383 254° West 378 435 33,900 -600 Descending Cleveland Center
08:24PM 43.3083 -82.7742 253° West 378 435 32,900 -900 Descending Cleveland Center
08:25PM 43.2744 -82.9100 251° West 378 435 32,200 -480 Descending Cleveland Center
08:26PM 43.2444 -83.0514 254° West 383 441 32,000 -120 Descending Cleveland Center
08:27PM 43.2125 -83.1867 252° West 383 441 32,000  Level Cleveland Center
08:28PM 43.1819 -83.3250 253° West 378 435 32,000  Level Cleveland Center
08:29PM 43.1517 -83.4631 253° West 378 435 32,000  Level Cleveland Center
08:30PM 43.1189 -83.6039 252° West 378 435 32,000  Level Cleveland Center
08:31PM 43.0861 -83.7386 252° West 378 435 32,000  Level Cleveland Center
08:32PM 43.0550 -83.8764 253° West 378 435 32,000  Level Cleveland Center
08:33PM 43.0219 -84.0167 252° West 378 435 32,000  Level Cleveland Center
08:34PM 42.9864 -84.1567 251° West 383 441 32,000  Level Cleveland Center
08:35PM 42.9719 -84.2167 252° West 384 442 32,000  Level Chicago Center
08:36PM 42.9325 -84.3833 252° West 385 443 32,000  Level Chicago Center
08:37PM 42.8983 -84.5208 251° West 385 443 32,000  Level Chicago Center
08:38PM 42.8758 -84.6636 258° West 387 445 32,000  Level Chicago Center
08:39PM 42.8617 -84.8064 262° West 383 441 32,000  Level Chicago Center
08:40PM 42.8453 -84.9500 261° West 383 441 32,000  Level Chicago Center
08:41PM 42.8306 -85.0931 262° West 383 441 32,000  Level Chicago Center
08:42PM 42.8117 -85.2653 262° West 383 441 32,000  Level Chicago Center
08:43PM 42.7958 -85.4108 262° West 386 444 32,000 -240 Level Chicago Center
08:44PM 42.7767 -85.5533 260° West 383 441 31,600 -1,260 Descending Chicago Center
08:45PM 42.7506 -85.6983 256° West 391 450 29,500 -2,220 Descending Chicago Center
08:46PM 42.7244 -85.8406 256° West 388 447 27,100 -2,340 Descending Chicago Center
08:47PM 42.6997 -85.9789 256° West 377 434 24,700 -2,340 Descending Chicago Center
08:48PM 42.6736 -86.1192 256° West 379 436 22,300 -2,280 Descending Chicago Center
08:50PM 42.6433 -86.2817 256° West 371 427 20,000 -1,140 Descending Chicago Center
08:51PM 42.6181 -86.4122 255° West 360 414 20,000  Level Chicago Center
08:52PM 42.5931 -86.5464 256° West 366 421 20,000  Level Chicago Center
08:53PM 42.5678 -86.6917 257° West 363 418 20,000 -840 Level Chicago Center
08:54PM 42.5350 -86.8239 251° West 371 427 18,300 -1,860 Descending Chicago Center
08:55PM 42.5022 -86.9417 249° West 370 426 16,200 -2,280 Descending Chicago Center
08:56PM 42.4594 -87.0919 249° West 358 412 13,600 -2,400 Descending Chicago Center
08:57PM 42.4256 -87.2147 250° West 351 404 11,300 -1,800 Descending Chicago Center
08:58PM 42.3931 -87.3344 250° West 341 392 10,000 -660 Descending Chicago Center
08:59PM 42.3614 -87.4522 250° West 319 367 10,000 -660 Level Chicago Center
09:00PM 42.3331 -87.5450 248° West 276 318 8,700 -960 Descending Chicago Center
09:01PM 42.2717 -87.6069 217° Southwest 278 320 8,000 -540 Descending Chicago Center
09:02PM 42.2094 -87.6719 218° Southwest 283 326 7,700 -540 Descending Chicago Center
09:03PM 42.1381 -87.7475 218° Southwest 276 318 7,000 -360 Descending Chicago Center
09:04PM 42.1069 -87.8414 246° West 279 321 7,000  Level Chicago Center
09:05PM 42.1000 -87.9000 261° West 268 308 7,000  Level Chicago TRACON
09:06PM 42.1000 -87.9833 270° West 203 234 7,000 -300 Level Chicago TRACON
09:07PM 42.0833 -88.0500 251° West 179 206 6,400 -900 Descending Chicago TRACON
09:08PM 42.0833 -88.1167 270° West 177 204 5,300 -1,140 Descending Chicago TRACON
09:08PM 42.0794 -88.1517 261° West 182 209 4,600 -1,260 Descending Chicago Center
09:09PM 42.0267 -88.1514 180° South 194 223 3,300 -1,080 Descending Chicago Center
09:10PM 42.0167 -88.1167 111° Southeast 185 213 3,000 -360 Descending Chicago TRACON
09:11PM 42.0000 -88.0667 114° Southeast 178 205 2,800 -600 Descending Chicago TRACON
09:12PM 41.9833 -88.0000 109° East 149 171 1,900 -840 Descending Chicago TRACON
09:13PM 41.9833 -87.9500 90° East 135 155 1,200 -720 Descending Chicago TRACON